Time;durP1;ratioP1;P1;durP2;ratioP2;P2;SDS_P1;SDS_P2;PMS_P1;PMS_P2;Temp;Humidity;BMP_temperature;BMP_pressure;BME280_temperature;BME280_humidity;BME280_pressure;Samples;Min_cycle;Max_cycle;Signal;HPM_P1;HPM_P2
2022/08/31 00:05:08;;;;;;;2.15;0.90;;;18.00;71.80;;;;;;5018629;28;20083;-71
2022/08/31 00:07:35;;;;;;;2.08;1.10;;;17.90;72.00;;;;;;5010259;28;20053;-72
2022/08/31 00:10:12;;;;;;;1.70;0.90;;;17.90;71.90;;;;;;5001614;28;20451;-73
2022/08/31 00:12:40;;;;;;;2.30;1.20;;;17.90;72.20;;;;;;5042778;28;20138;-71
2022/08/31 00:15:08;;;;;;;2.78;1.30;;;17.90;72.10;;;;;;5029147;28;20057;-71
2022/08/31 00:17:35;;;;;;;3.25;0.95;;;17.90;72.30;;;;;;5039594;28;20049;-72
2022/08/31 00:20:04;;;;;;;2.05;1.08;;;17.80;72.50;;;;;;4996510;28;20060;-72
2022/08/31 00:22:30;;;;;;;2.38;1.30;;;17.80;72.30;;;;;;5011392;28;20550;-71
2022/08/31 00:24:57;;;;;;;2.30;0.90;;;17.80;72.30;;;;;;5014481;28;20200;-71
2022/08/31 00:27:24;;;;;;;2.83;0.80;;;17.80;72.60;;;;;;5038562;28;20041;-71
2022/08/31 00:29:50;;;;;;;2.83;1.00;;;17.80;72.40;;;;;;5006526;28;20509;-71
2022/08/31 00:32:16;;;;;;;1.67;0.95;;;17.80;72.50;;;;;;5004911;28;20099;-71
2022/08/31 00:34:44;;;;;;;2.42;1.08;;;17.80;72.40;;;;;;5000443;28;20050;-71
2022/08/31 00:37:11;;;;;;;2.90;0.95;;;17.70;72.50;;;;;;5019303;28;20458;-72
2022/08/31 00:39:37;;;;;;;2.00;1.00;;;17.70;72.60;;;;;;5002869;28;20049;-72
2022/08/31 00:42:05;;;;;;;2.72;0.90;;;17.70;72.60;;;;;;5010003;28;20053;-73
2022/08/31 00:44:32;;;;;;;2.28;1.08;;;17.60;73.20;;;;;;5000112;28;20050;-71
2022/08/31 00:46:58;;;;;;;4.50;1.10;;;17.60;73.30;;;;;;5003098;28;20050;-71
2022/08/31 00:49:30;;;;;;;2.10;1.27;;;17.60;73.20;;;;;;5062637;28;20371;-72
2022/08/31 00:52:11;;;;;;;3.22;1.35;;;17.60;73.30;;;;;;5018188;28;20053;-72
2022/08/31 00:55:04;;;;;;;3.00;0.95;;;17.60;73.30;;;;;;4999290;28;20476;-73
2022/08/31 00:57:36;;;;;;;1.85;1.02;;;17.60;73.30;;;;;;5016630;28;20056;-72
2022/08/31 01:00:06;;;;;;;1.75;0.88;;;17.60;73.40;;;;;;5010030;28;20046;-72
2022/08/31 01:02:33;;;;;;;1.80;0.80;;;17.50;73.60;;;;;;5028568;28;20068;-72
2022/08/31 01:04:59;;;;;;;1.58;1.05;;;17.50;73.40;;;;;;4996625;28;20573;-72
2022/08/31 01:07:25;;;;;;;2.53;1.52;;;17.50;73.50;;;;;;5009642;28;20054;-72
2022/08/31 01:09:51;;;;;;;2.10;0.93;;;17.50;73.20;;;;;;5015613;28;20521;-72
2022/08/31 01:12:18;;;;;;;2.50;1.10;;;17.50;73.30;;;;;;5011183;28;20136;-72
2022/08/31 01:14:44;;;;;;;2.00;1.00;;;17.50;73.50;;;;;;5013338;28;20045;-72
2022/08/31 01:17:11;;;;;;;3.20;1.00;;;17.40;73.80;;;;;;5009685;28;20042;-72
2022/08/31 01:20:24;;;;;;;1.27;0.88;;;17.40;73.80;;;;;;4994614;28;20475;-72
2022/08/31 01:22:55;;;;;;;2.45;1.10;;;17.40;73.90;;;;;;5000677;28;20049;-73
2022/08/31 01:25:21;;;;;;;2.22;1.10;;;17.40;73.80;;;;;;5012607;28;20100;-72
2022/08/31 01:27:47;;;;;;;3.47;1.10;;;17.30;73.90;;;;;;5001909;28;20058;-72
2022/08/31 01:30:20;;;;;;;3.50;1.15;;;17.30;74.00;;;;;;5012271;28;20561;-72
2022/08/31 01:32:47;;;;;;;4.05;1.20;;;17.30;74.40;;;;;;5012971;28;20137;-72
2022/08/31 01:35:13;;;;;;;2.10;1.10;;;17.30;74.10;;;;;;5007201;28;20045;-72
2022/08/31 01:37:40;;;;;;;2.00;1.05;;;17.30;74.30;;;;;;5020983;28;20053;-72
2022/08/31 01:40:06;;;;;;;1.80;1.13;;;17.30;74.20;;;;;;5044792;28;20046;-72
2022/08/31 01:42:32;;;;;;;3.42;1.13;;;17.20;74.50;;;;;;5021501;28;20095;-72
2022/08/31 01:44:58;;;;;;;3.53;1.20;;;17.10;74.50;;;;;;4999592;28;20463;-72
2022/08/31 01:47:25;;;;;;;1.92;1.00;;;17.10;74.70;;;;;;5012154;28;20103;-72
2022/08/31 01:49:52;;;;;;;2.25;1.17;;;17.10;74.60;;;;;;5008804;28;20050;-72
2022/08/31 01:52:19;;;;;;;1.08;0.85;;;17.10;74.50;;;;;;5014985;28;20559;-71
2022/08/31 01:54:44;;;;;;;2.60;1.13;;;17.00;74.70;;;;;;5021332;28;20518;-72
2022/08/31 01:57:12;;;;;;;2.28;0.93;;;17.10;74.70;;;;;;5009113;28;20046;-71
2022/08/31 01:59:37;;;;;;;2.00;0.80;;;17.10;74.40;;;;;;4995223;28;20100;-71
2022/08/31 02:02:03;;;;;;;4.05;1.10;;;17.00;74.90;;;;;;5009469;28;20053;-71
2022/08/31 02:04:30;;;;;;;3.58;1.10;;;17.00;74.90;;;;;;5029912;28;20092;-71
2022/08/31 02:06:57;;;;;;;1.50;1.00;;;17.00;74.70;;;;;;4993924;28;20450;-71
2022/08/31 02:09:24;;;;;;;2.22;1.10;;;17.00;74.90;;;;;;4992220;28;20375;-71
2022/08/31 02:11:49;;;;;;;1.95;0.85;;;17.00;74.70;;;;;;5013434;28;20042;-71
2022/08/31 02:14:17;;;;;;;3.35;1.10;;;17.00;75.00;;;;;;5011263;28;20060;-70
2022/08/31 02:16:44;;;;;;;1.73;0.90;;;17.00;75.10;;;;;;5010576;28;20045;-71
2022/08/31 02:19:11;;;;;;;3.13;1.20;;;16.90;75.20;;;;;;5057520;28;20442;-70
2022/08/31 02:21:38;;;;;;;2.25;0.90;;;16.90;75.30;;;;;;5012498;28;20490;-70
2022/08/31 02:24:05;;;;;;;3.67;0.90;;;16.90;75.20;;;;;;5041243;28;20052;-71
2022/08/31 02:26:31;;;;;;;2.83;1.15;;;16.80;75.40;;;;;;5016158;28;20142;-70
2022/08/31 02:28:57;;;;;;;2.17;1.00;;;16.80;75.40;;;;;;5013688;28;20125;-71
2022/08/31 02:31:26;;;;;;;4.65;1.13;;;16.80;76.00;;;;;;4999448;28;20100;-70
2022/08/31 02:33:53;;;;;;;2.25;1.10;;;16.80;75.70;;;;;;5008483;28;20056;-71
2022/08/31 02:36:20;;;;;;;3.90;0.98;;;16.80;75.50;;;;;;5014061;28;20046;-71
2022/08/31 02:38:47;;;;;;;2.50;0.82;;;16.80;75.90;;;;;;5018296;28;20059;-71
2022/08/31 02:41:16;;;;;;;2.17;0.95;;;16.70;75.50;;;;;;5019739;28;20121;-71
2022/08/31 02:43:43;;;;;;;1.50;0.70;;;16.70;75.50;;;;;;5013076;28;20510;-71
2022/08/31 02:46:10;;;;;;;1.17;0.80;;;16.70;75.50;;;;;;5017906;28;20061;-71
2022/08/31 02:48:37;;;;;;;2.75;1.00;;;16.70;75.70;;;;;;4998884;28;20044;-71
2022/08/31 02:51:06;;;;;;;1.60;0.82;;;16.70;75.40;;;;;;5024329;28;20055;-71
2022/08/31 02:53:34;;;;;;;1.60;1.00;;;16.70;75.80;;;;;;5011892;28;20049;-71
2022/08/31 02:56:01;;;;;;;3.38;1.00;;;16.60;75.80;;;;;;5013109;28;20125;-71
2022/08/31 02:58:28;;;;;;;2.28;1.20;;;16.60;75.80;;;;;;5001045;28;20050;-71
2022/08/31 03:00:55;;;;;;;2.38;0.90;;;16.60;76.20;;;;;;5039703;28;20072;-71
2022/08/31 03:03:21;;;;;;;1.27;0.80;;;16.60;75.90;;;;;;5015823;28;20050;-71
2022/08/31 03:05:48;;;;;;;2.22;0.88;;;16.60;75.80;;;;;;5003380;28;20057;-71
2022/08/31 03:08:15;;;;;;;2.25;1.13;;;16.50;76.60;;;;;;5020528;28;20041;-71
2022/08/31 03:10:40;;;;;;;3.95;1.10;;;16.50;76.10;;;;;;5019571;28;20045;-71
2022/08/31 03:13:07;;;;;;;5.35;1.00;;;16.50;76.60;;;;;;5007469;28;20046;-72
2022/08/31 03:15:33;;;;;;;1.75;0.80;;;16.50;76.40;;;;;;5019441;28;20364;-71
2022/08/31 03:18:00;;;;;;;3.05;1.15;;;16.40;76.80;;;;;;4996379;28;20049;-71
2022/08/31 03:20:26;;;;;;;2.28;1.10;;;16.40;77.00;;;;;;5017831;28;20054;-71
2022/08/31 03:22:51;;;;;;;2.30;1.10;;;16.30;76.90;;;;;;5050986;28;20061;-71
2022/08/31 03:25:19;;;;;;;1.90;0.85;;;16.30;77.30;;;;;;5011708;28;20483;-71
2022/08/31 03:27:45;;;;;;;2.38;0.98;;;16.30;77.40;;;;;;5011257;28;20231;-71
2022/08/31 03:30:14;;;;;;;2.75;0.90;;;16.30;77.10;;;;;;5029053;28;20053;-70
2022/08/31 03:32:41;;;;;;;1.80;0.90;;;16.20;77.30;;;;;;5017013;28;20049;-71
2022/08/31 03:35:08;;;;;;;1.77;0.90;;;16.30;77.30;;;;;;5014789;28;20065;-71
2022/08/31 03:37:34;;;;;;;4.10;0.98;;;16.40;77.00;;;;;;4995875;28;20195;-72
2022/08/31 03:40:00;;;;;;;2.08;0.80;;;16.40;77.00;;;;;;5045892;28;20124;-71
2022/08/31 03:42:26;;;;;;;2.08;1.00;;;16.30;77.00;;;;;;5016836;28;20364;-71
2022/08/31 03:44:53;;;;;;;1.33;0.82;;;16.30;77.40;;;;;;5016757;28;20057;-71
2022/08/31 03:47:18;;;;;;;2.97;0.90;;;16.30;77.70;;;;;;5015975;28;20057;-71
2022/08/31 03:49:45;;;;;;;3.80;0.90;;;16.30;77.20;;;;;;5013532;28;20056;-71
2022/08/31 03:52:12;;;;;;;1.58;0.80;;;16.20;77.30;;;;;;5015205;28;20497;-71
2022/08/31 03:54:38;;;;;;;1.90;0.90;;;16.20;77.70;;;;;;5014917;28;20131;-72
2022/08/31 03:57:04;;;;;;;2.25;1.10;;;16.20;77.80;;;;;;5010428;28;20120;-71
2022/08/31 03:59:30;;;;;;;2.75;0.90;;;16.20;78.60;;;;;;5013890;28;20088;-72
2022/08/31 04:01:57;;;;;;;4.57;0.75;;;16.20;77.80;;;;;;5018314;28;20183;-73
2022/08/31 04:04:23;;;;;;;4.13;0.90;;;16.10;78.00;;;;;;5061022;28;20990;-72
2022/08/31 04:06:49;;;;;;;6.68;1.08;;;16.10;78.20;;;;;;5018872;28;20060;-72
2022/08/31 04:09:14;;;;;;;3.55;0.80;;;16.10;78.10;;;;;;5017664;28;20054;-71
2022/08/31 04:11:42;;;;;;;2.67;1.00;;;16.10;77.90;;;;;;4986795;28;20100;-71
2022/08/31 04:14:09;;;;;;;2.03;0.73;;;16.10;78.20;;;;;;5040055;28;20053;-70
2022/08/31 04:16:37;;;;;;;2.10;1.10;;;16.00;78.40;;;;;;5005515;28;20050;-72
2022/08/31 04:19:05;;;;;;;1.65;0.88;;;16.00;78.40;;;;;;4994682;28;20387;-74
2022/08/31 04:21:31;;;;;;;3.60;1.17;;;15.90;78.80;;;;;;5017104;28;20445;-75
2022/08/31 04:23:57;;;;;;;1.75;0.80;;;16.00;78.70;;;;;;5016995;28;20061;-73
2022/08/31 04:26:28;;;;;;;2.50;0.98;;;16.00;78.30;;;;;;5014923;28;20041;-74
2022/08/31 04:28:55;;;;;;;3.63;1.17;;;15.90;78.50;;;;;;5005132;28;20052;-71
2022/08/31 04:31:23;;;;;;;2.50;0.95;;;15.90;78.70;;;;;;5016138;28;20057;-73
2022/08/31 04:33:51;;;;;;;2.05;1.02;;;15.80;79.20;;;;;;4999151;28;20061;-71
2022/08/31 04:36:21;;;;;;;1.80;1.00;;;15.80;79.30;;;;;;4997927;28;20058;-71
2022/08/31 04:38:51;;;;;;;2.90;1.20;;;15.80;79.40;;;;;;5008221;28;20041;-71
2022/08/31 04:41:19;;;;;;;1.88;0.85;;;15.70;79.60;;;;;;5009688;28;20141;-71
2022/08/31 04:43:47;;;;;;;;;;;15.80;79.30;;;;;;5012582;28;20045;-71
2022/08/31 04:46:14;;;;;;;3.30;0.90;;;15.80;79.00;;;;;;5036252;28;20334;-72
2022/08/31 04:48:40;;;;;;;1.23;0.77;;;15.80;79.20;;;;;;5003176;28;20055;-72
2022/08/31 04:51:11;;;;;;;2.50;1.13;;;15.80;79.50;;;;;;5010530;28;20049;-68
2022/08/31 04:53:37;;;;;;;4.35;0.90;;;15.70;79.60;;;;;;5023318;28;20475;-68
2022/08/31 04:56:06;;;;;;;3.15;1.10;;;15.70;79.50;;;;;;5011114;28;20049;-68
2022/08/31 04:58:32;;;;;;;2.13;0.88;;;15.60;80.00;;;;;;5014065;28;20076;-68
2022/08/31 05:00:58;;;;;;;3.25;1.10;;;15.60;79.60;;;;;;5026027;28;20042;-68
2022/08/31 05:03:24;;;;;;;3.15;1.10;;;15.70;79.80;;;;;;4998151;28;20046;-68
2022/08/31 05:05:51;;;;;;;2.30;0.98;;;15.70;79.80;;;;;;5006718;28;20056;-67
2022/08/31 05:08:18;;;;;;;3.30;1.10;;;15.60;80.00;;;;;;4993157;28;20124;-68
2022/08/31 05:10:45;;;;;;;3.13;1.10;;;15.60;79.80;;;;;;5012990;28;20060;-68
2022/08/31 05:13:11;;;;;;;4.43;1.00;;;15.70;79.90;;;;;;5011723;28;20054;-68
2022/08/31 05:15:43;;;;;;;3.35;1.05;;;15.70;79.90;;;;;;5014565;28;20111;-69
2022/08/31 05:18:09;;;;;;;4.15;0.90;;;15.70;79.80;;;;;;5044654;28;20041;-67
2022/08/31 05:20:35;;;;;;;4.38;1.00;;;15.70;79.90;;;;;;5038593;28;20631;-67
2022/08/31 05:23:01;;;;;;;3.08;0.90;;;15.70;79.90;;;;;;5027120;28;20049;-68
2022/08/31 05:25:27;;;;;;;3.38;1.23;;;15.70;79.80;;;;;;4992427;28;20060;-70
2022/08/31 05:27:55;;;;;;;4.93;1.25;;;15.70;80.10;;;;;;5015261;28;20069;-67
2022/08/31 05:30:21;;;;;;;4.63;1.23;;;15.90;79.70;;;;;;4983322;28;20084;-67
2022/08/31 05:32:47;;;;;;;4.40;1.40;;;15.90;79.80;;;;;;5009018;28;20049;-68
2022/08/31 05:35:13;;;;;;;8.80;1.50;;;15.90;79.20;;;;;;5009059;28;20052;-67
2022/08/31 05:37:38;;;;;;;6.22;1.05;;;15.90;79.20;;;;;;4999658;28;20047;-67
2022/08/31 05:40:05;;;;;;;2.78;1.40;;;15.90;79.10;;;;;;5011932;28;20057;-67
2022/08/31 05:42:31;;;;;;;5.82;1.70;;;15.80;78.90;;;;;;5007997;28;20045;-68
2022/08/31 05:44:57;;;;;;;7.00;2.47;;;15.90;79.40;;;;;;5042258;28;20459;-69
2022/08/31 05:47:22;;;;;;;6.60;2.38;;;15.90;79.30;;;;;;5011279;28;20053;-67
2022/08/31 05:49:48;;;;;;;4.32;2.13;;;15.80;79.50;;;;;;4995330;28;20517;-67
2022/08/31 05:52:14;;;;;;;7.28;3.00;;;15.80;79.30;;;;;;5001989;28;20061;-67
2022/08/31 05:54:40;;;;;;;5.88;2.65;;;15.90;79.30;;;;;;5026069;28;20104;-69
2022/08/31 05:57:07;;;;;;;4.93;2.50;;;15.90;79.30;;;;;;4998146;28;20140;-67
2022/08/31 05:59:34;;;;;;;10.15;3.00;;;16.00;79.00;;;;;;5020614;28;20045;-67
2022/08/31 06:02:01;;;;;;;7.68;2.78;;;16.00;78.80;;;;;;4979111;28;20404;-69
2022/08/31 06:04:28;;;;;;;5.70;2.65;;;16.10;78.80;;;;;;5017715;28;20743;-67
2022/08/31 06:06:54;;;;;;;5.22;1.90;;;16.10;79.20;;;;;;5009785;28;20068;-67
2022/08/31 06:09:20;;;;;;;6.65;2.08;;;16.10;79.10;;;;;;5022415;28;20057;-67
2022/08/31 06:11:46;;;;;;;5.30;2.30;;;16.10;79.10;;;;;;5017084;28;20084;-67
2022/08/31 06:14:12;;;;;;;4.57;1.65;;;16.10;79.10;;;;;;5020680;28;20131;-67
2022/08/31 06:16:38;;;;;;;5.47;1.85;;;16.20;78.80;;;;;;4987146;28;20357;-67
2022/08/31 06:19:05;;;;;;;8.20;1.83;;;16.30;78.80;;;;;;5022323;28;20049;-68
2022/08/31 06:21:33;;;;;;;8.15;1.90;;;16.30;78.70;;;;;;5003982;28;20136;-67
2022/08/31 06:23:59;;;;;;;5.60;2.00;;;16.30;78.70;;;;;;5018375;28;20482;-67
2022/08/31 06:26:27;;;;;;;9.57;1.77;;;16.30;78.60;;;;;;5014187;28;20065;-67
2022/08/31 06:28:54;;;;;;;8.07;2.00;;;16.30;78.70;;;;;;5008620;28;20064;-66
2022/08/31 06:31:23;;;;;;;6.90;2.00;;;16.40;78.90;;;;;;5002759;28;20357;-66
2022/08/31 06:33:50;;;;;;;12.82;1.85;;;16.40;78.70;;;;;;5007287;28;20113;-67
2022/08/31 06:36:18;;;;;;;4.57;1.52;;;16.40;78.90;;;;;;4997824;28;20037;-67
2022/08/31 06:38:45;;;;;;;4.73;1.40;;;16.40;78.80;;;;;;5009586;28;20044;-70
2022/08/31 06:41:23;;;;;;;5.28;1.80;;;16.50;78.90;;;;;;5043422;28;20673;-67
2022/08/31 06:43:50;;;;;;;6.68;1.88;;;16.50;79.50;;;;;;5001338;28;20451;-68
2022/08/31 06:46:18;;;;;;;3.80;1.52;;;16.50;79.40;;;;;;5021070;28;20071;-71
2022/08/31 06:48:45;;;;;;;3.43;1.70;;;16.60;79.10;;;;;;5018237;28;20053;-71
2022/08/31 06:51:13;;;;;;;3.60;1.75;;;16.60;79.00;;;;;;5023008;28;20548;-72
2022/08/31 06:53:41;;;;;;;5.65;1.48;;;16.70;79.10;;;;;;5022593;28;20131;-73
2022/08/31 06:56:11;;;;;;;4.30;1.40;;;16.80;78.80;;;;;;5026326;28;20044;-70
2022/08/31 06:58:39;;;;;;;3.13;1.55;;;16.80;78.70;;;;;;5019173;28;20450;-71
2022/08/31 07:01:06;;;;;;;4.80;2.00;;;16.90;78.50;;;;;;5009788;28;20037;-71
2022/08/31 07:03:37;;;;;;;4.65;2.30;;;17.00;78.20;;;;;;5025854;28;20130;-71
2022/08/31 07:06:07;;;;;;;11.98;2.00;;;17.00;77.90;;;;;;5017620;28;20037;-71
2022/08/31 07:08:35;;;;;;;7.68;2.35;;;17.10;77.80;;;;;;5004947;28;20049;-73
2022/08/31 07:11:02;;;;;;;8.35;3.40;;;17.10;77.80;;;;;;5043188;28;20060;-73
2022/08/31 07:13:29;;;;;;;6.47;2.55;;;17.20;78.10;;;;;;5056926;28;20099;-71
2022/08/31 07:16:07;;;;;;;5.40;1.95;;;17.20;77.80;;;;;;5021652;28;20041;-71
2022/08/31 07:18:34;;;;;;;6.50;2.17;;;17.20;77.70;;;;;;5016490;28;20045;-71
2022/08/31 07:21:24;;;;;;;4.10;1.67;;;17.30;77.50;;;;;;5019163;28;20049;-71
2022/08/31 07:23:51;;;;;;;4.80;1.50;;;17.40;77.20;;;;;;5027503;28;20045;-71
2022/08/31 07:26:24;;;;;;;5.93;1.35;;;17.40;77.50;;;;;;5020838;28;20060;-71
2022/08/31 07:28:53;;;;;;;3.65;1.25;;;17.50;77.30;;;;;;4996175;28;20072;-71
2022/08/31 07:31:21;;;;;;;;;;;17.50;77.20;;;;;;5025762;28;20053;-71
2022/08/31 07:34:09;;;;;;;2.45;0.88;;;17.50;77.10;;;;;;5041661;28;19935;-70
2022/08/31 07:42:08;;;;;;;3.22;1.20;;;17.60;77.00;;;;;;5023748;28;20103;-71
2022/08/31 07:42:13;;;;;;;6.88;1.45;;;17.70;76.70;;;;;;5059588;28;20073;-72
2022/08/31 07:44:40;;;;;;;5.57;1.10;;;17.70;76.70;;;;;;5023596;28;20059;-71
2022/08/31 07:47:10;;;;;;;8.95;1.52;;;17.80;76.50;;;;;;5027179;28;20136;-71
2022/08/31 07:49:43;;;;;;;4.55;1.10;;;17.80;76.40;;;;;;5025179;28;20570;-70
2022/08/31 07:52:11;;;;;;;6.13;1.10;;;17.90;76.40;;;;;;5019158;28;20132;-72
2022/08/31 07:54:39;;;;;;;1.60;1.08;;;18.00;76.30;;;;;;5042910;28;20147;-71
2022/08/31 07:57:09;;;;;;;;;;;18.00;76.10;;;;;;5000837;28;20057;-71
2022/08/31 07:59:38;;;;;;;4.75;1.40;;;18.00;76.00;;;;;;5022294;28;19972;-71
2022/08/31 08:02:05;;;;;;;4.93;1.00;;;18.10;76.30;;;;;;5047448;28;20052;-70
2022/08/31 08:04:37;;;;;;;5.70;1.23;;;18.20;76.00;;;;;;5009916;28;20046;-71
2022/08/31 08:07:05;;;;;;;4.25;1.27;;;18.20;75.80;;;;;;5005999;28;20061;-72
2022/08/31 08:09:32;;;;;;;3.38;1.17;;;18.20;75.50;;;;;;5010931;28;20061;-71
2022/08/31 08:12:03;;;;;;;7.57;1.25;;;18.30;75.60;;;;;;5015404;28;20057;-71
2022/08/31 08:14:30;;;;;;;2.10;0.90;;;18.30;75.80;;;;;;5007287;28;20144;-75
2022/08/31 08:16:57;;;;;;;4.47;1.30;;;18.40;75.40;;;;;;5026649;28;20046;-73
2022/08/31 08:19:24;;;;;;;5.15;1.10;;;18.50;75.00;;;;;;5010558;28;20041;-73
2022/08/31 08:21:52;;;;;;;6.50;1.00;;;18.60;75.00;;;;;;5009354;28;20060;-73
2022/08/31 08:24:19;;;;;;;8.18;1.00;;;18.60;74.80;;;;;;5006365;28;20041;-73
2022/08/31 08:26:47;;;;;;;2.45;0.93;;;18.60;74.50;;;;;;5011589;28;20505;-73
2022/08/31 08:29:14;;;;;;;3.80;1.00;;;18.70;74.50;;;;;;5006019;28;20818;-73
2022/08/31 08:31:42;;;;;;;2.35;0.90;;;18.70;74.30;;;;;;5007655;28;20052;-73
2022/08/31 08:34:09;;;;;;;4.13;1.10;;;18.70;74.20;;;;;;5016313;28;20057;-73
2022/08/31 08:36:39;;;;;;;4.85;1.00;;;18.80;73.90;;;;;;5009872;28;20045;-74
2022/08/31 08:39:12;;;;;;;2.53;1.02;;;18.90;73.70;;;;;;5021882;28;20128;-75
2022/08/31 08:41:40;;;;;;;3.65;0.90;;;18.90;73.50;;;;;;5051474;28;20057;-74
2022/08/31 08:44:09;;;;;;;4.30;1.13;;;19.10;73.10;;;;;;5022290;28;20050;-74
2022/08/31 08:47:01;;;;;;;3.45;1.17;;;19.10;73.00;;;;;;5019355;28;20487;-73
2022/08/31 08:49:36;;;;;;;2.72;1.10;;;19.20;72.80;;;;;;5027553;28;20139;-73
2022/08/31 08:52:36;;;;;;;2.38;0.80;;;19.20;72.20;;;;;;5023167;28;20429;-75
2022/08/31 08:55:06;;;;;;;2.05;1.17;;;19.20;72.40;;;;;;5026662;28;20042;-74
2022/08/31 08:57:34;;;;;;;5.40;1.00;;;19.30;72.50;;;;;;5006356;28;20099;-74
2022/08/31 09:00:07;;;;;;;6.60;1.10;;;19.40;71.80;;;;;;5008793;28;20527;-74
2022/08/31 09:02:57;;;;;;;2.58;0.90;;;19.50;71.70;;;;;;5023516;28;20056;-75
2022/08/31 09:05:41;;;;;;;4.07;1.23;;;19.60;71.20;;;;;;5012718;28;20076;-74
2022/08/31 09:08:36;;;;;;;5.10;1.27;;;19.80;70.60;;;;;;5023569;28;20057;-74
2022/08/31 09:11:29;;;;;;;5.85;1.30;;;19.90;70.70;;;;;;4994769;28;20067;-74
2022/08/31 09:14:27;;;;;;;3.25;1.10;;;20.00;70.50;;;;;;5008219;28;20605;-75
2022/08/31 09:17:14;;;;;;;5.45;0.90;;;20.00;70.20;;;;;;5033031;28;20040;-73
2022/08/31 09:22:29;;;;;;;3.42;0.80;;;20.10;68.90;;;;;;5020544;28;20208;-77
2022/08/31 09:24:58;;;;;;;3.60;1.05;;;20.10;68.10;;;;;;5009813;28;20124;-77
2022/08/31 09:27:56;;;;;;;2.80;0.90;;;20.20;68.10;;;;;;4993942;28;20041;-75
2022/08/31 09:30:39;;;;;;;4.65;1.10;;;20.30;67.40;;;;;;5015096;28;20057;-77
2022/08/31 09:33:06;;;;;;;3.22;1.00;;;20.30;68.00;;;;;;5009345;28;20387;-77
2022/08/31 09:35:44;;;;;;;5.57;1.17;;;20.40;67.30;;;;;;5000649;28;20069;-76
2022/08/31 09:38:24;;;;;;;3.75;1.17;;;20.40;67.40;;;;;;4989448;28;20427;-73
2022/08/31 09:40:51;;;;;;;7.65;1.10;;;20.50;67.70;;;;;;4997952;28;20475;-72
2022/08/31 09:43:36;;;;;;;3.80;1.00;;;20.60;67.40;;;;;;5014193;28;20045;-70
2022/08/31 09:46:11;;;;;;;2.10;0.88;;;20.60;65.10;;;;;;5020889;28;20565;-69
2022/08/31 09:48:54;;;;;;;2.70;0.90;;;20.70;65.30;;;;;;5001083;28;20666;-68
2022/08/31 09:51:34;;;;;;;2.10;0.80;;;20.70;64.00;;;;;;5012769;28;20132;-68
2022/08/31 09:57:10;;;;;;;4.95;1.00;;;20.80;64.10;;;;;;5015353;28;20144;-69
2022/08/31 09:59:42;;;;;;;4.05;1.17;;;21.00;64.10;;;;;;5035920;28;20354;-69
2022/08/31 10:02:32;;;;;;;4.00;0.80;;;21.20;64.10;;;;;;5020230;28;20051;-69
2022/08/31 10:05:05;;;;;;;4.00;1.00;;;21.30;60.70;;;;;;4994804;28;20050;-72
2022/08/31 10:08:27;;;;;;;4.22;1.00;;;21.30;62.30;;;;;;5030078;28;20045;-72
2022/08/31 10:10:57;;;;;;;2.42;0.80;;;21.40;61.20;;;;;;5004887;28;20140;-71
2022/08/31 10:13:37;;;;;;;3.03;0.85;;;21.40;61.30;;;;;;5018883;28;20050;-72
2022/08/31 10:16:46;;;;;;;1.85;1.00;;;21.50;60.30;;;;;;4989532;28;20120;-71
2022/08/31 10:20:04;;;;;;;;;;;21.60;61.10;;;;;;4999710;28;20074;-71
2022/08/31 10:22:49;;;;;;;4.38;1.23;;;21.60;60.50;;;;;;4987125;28;19917;-72
2022/08/31 10:25:40;;;;;;;2.30;0.88;;;21.60;60.20;;;;;;5035539;28;20049;-71
2022/08/31 10:28:16;;;;;;;3.95;0.90;;;21.60;58.30;;;;;;5019960;28;20049;-72
2022/08/31 10:31:03;;;;;;;2.22;0.85;;;21.70;59.10;;;;;;5020855;28;20042;-71
2022/08/31 10:36:32;;;;;;;5.60;1.00;;;21.90;58.80;;;;;;5022782;28;20127;-71
2022/08/31 10:38:59;;;;;;;3.80;1.23;;;22.10;57.70;;;;;;5008415;28;20048;-71
2022/08/31 10:41:29;;;;;;;2.72;0.90;;;22.20;57.80;;;;;;5023348;28;20050;-71
2022/08/31 10:44:22;;;;;;;2.80;1.02;;;22.30;57.30;;;;;;5004286;28;20077;-71
2022/08/31 10:46:53;;;;;;;2.65;1.23;;;22.30;56.10;;;;;;5018172;28;20046;-72
2022/08/31 10:49:20;;;;;;;4.20;1.05;;;22.40;57.20;;;;;;5022147;28;20044;-72
2022/08/31 10:52:16;;;;;;;1.83;0.90;;;22.50;57.70;;;;;;4993708;28;20344;-71
2022/08/31 10:54:57;;;;;;;5.30;1.08;;;22.50;57.70;;;;;;5042896;28;20057;-71
2022/08/31 10:57:53;;;;;;;6.25;1.05;;;22.60;57.50;;;;;;5003595;28;20038;-71
2022/08/31 11:03:36;;;;;;;2.15;0.80;;;22.70;54.70;;;;;;5049401;28;20041;-71
2022/08/31 11:06:21;;;;;;;4.13;1.20;;;22.60;55.50;;;;;;5022937;28;20056;-70
2022/08/31 11:09:19;;;;;;;6.57;1.00;;;22.60;55.30;;;;;;5014806;28;20051;-71
2022/08/31 11:11:47;;;;;;;2.35;0.90;;;22.60;54.50;;;;;;5003947;28;20160;-73
2022/08/31 11:14:52;;;;;;;3.45;1.00;;;22.60;54.70;;;;;;5023334;28;20053;-71
2022/08/31 11:17:55;;;;;;;3.78;0.95;;;22.70;55.10;;;;;;5028580;28;20080;-72
2022/08/31 11:20:41;;;;;;;3.05;1.10;;;22.90;54.20;;;;;;5019861;28;20140;-71
2022/08/31 11:23:19;;;;;;;2.15;0.73;;;23.00;53.50;;;;;;5020595;28;20037;-72
2022/08/31 11:26:06;;;;;;;2.50;0.90;;;23.10;53.80;;;;;;5008386;28;20096;-71
2022/08/31 11:29:12;;;;;;;2.17;0.93;;;23.20;52.60;;;;;;5017922;28;20475;-71
2022/08/31 11:31:39;;;;;;;2.60;1.00;;;23.40;51.00;;;;;;5019777;28;20479;-70
2022/08/31 11:34:24;;;;;;;4.93;0.80;;;23.30;51.60;;;;;;5023645;28;20049;-71
2022/08/31 11:37:02;;;;;;;3.05;0.80;;;23.50;52.20;;;;;;5022645;28;20052;-71
2022/08/31 11:39:37;;;;;;;2.72;1.00;;;23.60;48.90;;;;;;5027780;28;20416;-72
2022/08/31 11:42:11;;;;;;;3.13;0.73;;;23.80;49.10;;;;;;5024393;28;20171;-71
2022/08/31 11:44:40;;;;;;;2.45;0.73;;;23.90;47.50;;;;;;5017572;28;20045;-72
2022/08/31 11:47:34;;;;;;;3.60;0.82;;;24.00;48.40;;;;;;5017297;28;20636;-71
2022/08/31 11:50:35;;;;;;;5.70;1.35;;;24.20;48.80;;;;;;5051100;28;20191;-72
2022/08/31 11:53:31;;;;;;;2.45;0.85;;;24.30;49.10;;;;;;5018007;28;20487;-72
2022/08/31 11:55:59;;;;;;;2.72;0.90;;;24.30;46.40;;;;;;5017879;28;20067;-73
2022/08/31 11:58:33;;;;;;;3.60;1.20;;;24.40;48.10;;;;;;4998323;28;20143;-72
2022/08/31 12:01:19;;;;;;;3.30;0.80;;;24.50;48.30;;;;;;5019757;28;20057;-72
2022/08/31 12:04:02;;;;;;;3.20;0.95;;;24.40;46.80;;;;;;5018473;28;20818;-70
2022/08/31 12:06:36;;;;;;;9.45;0.98;;;24.30;45.80;;;;;;5040971;28;20166;-71
2022/08/31 12:09:33;;;;;;;5.55;1.00;;;24.40;47.70;;;;;;5023042;28;20123;-72
2022/08/31 12:12:26;;;;;;;3.15;0.93;;;24.60;47.90;;;;;;5023286;28;20399;-71
2022/08/31 12:15:14;;;;;;;6.90;1.10;;;24.70;47.00;;;;;;5019961;28;20077;-71
2022/08/31 12:17:50;;;;;;;3.10;0.85;;;24.60;47.30;;;;;;5017045;28;20378;-72
2022/08/31 12:23:43;;;;;;;2.20;0.70;;;24.60;46.40;;;;;;5012484;28;20053;-72
2022/08/31 12:26:38;;;;;;;6.07;0.95;;;24.70;46.20;;;;;;5024669;28;20499;-72
2022/08/31 12:29:32;;;;;;;3.88;0.80;;;24.90;45.60;;;;;;5019279;28;20068;-72
2022/08/31 12:32:12;;;;;;;2.63;0.80;;;25.00;46.30;;;;;;5019433;28;20073;-72
2022/08/31 12:34:48;;;;;;;5.05;1.00;;;25.30;47.00;;;;;;4993271;28;20124;-72
2022/08/31 12:37:35;;;;;;;4.72;1.02;;;25.50;46.80;;;;;;5015806;28;20046;-72
2022/08/31 12:40:06;;;;;;;6.85;0.90;;;25.30;45.60;;;;;;5017162;28;20052;-72
2022/08/31 12:42:49;;;;;;;3.53;0.80;;;25.40;43.90;;;;;;5020443;28;20061;-73
2022/08/31 12:45:16;;;;;;;3.33;1.48;;;25.50;45.30;;;;;;5020333;28;20041;-72
2022/08/31 12:48:11;;;;;;;2.53;0.82;;;25.40;45.30;;;;;;5025794;28;20528;-71
2022/08/31 12:51:17;;;;;;;3.22;0.90;;;25.40;44.20;;;;;;5024028;28;20160;-72
2022/08/31 12:54:22;;;;;;;4.97;0.70;;;25.40;45.50;;;;;;5008263;28;20124;-72
2022/08/31 12:57:15;;;;;;;2.75;0.90;;;25.40;44.80;;;;;;5006423;28;20042;-71
2022/08/31 13:00:14;;;;;;;3.50;0.90;;;25.30;44.70;;;;;;5015335;28;20064;-72
2022/08/31 13:02:43;;;;;;;4.85;0.82;;;25.50;42.40;;;;;;5037487;28;20065;-71
2022/08/31 13:05:23;;;;;;;3.42;0.90;;;25.80;43.80;;;;;;5023865;28;20332;-73
2022/08/31 13:07:51;;;;;;;4.93;0.90;;;26.10;42.60;;;;;;5006095;28;20054;-72
2022/08/31 13:10:30;;;;;;;2.47;0.88;;;26.30;41.40;;;;;;4986900;28;20049;-72
2022/08/31 13:13:00;;;;;;;6.40;0.90;;;26.80;41.30;;;;;;5007961;28;20041;-71
2022/08/31 13:15:37;;;;;;;2.85;0.80;;;27.60;39.30;;;;;;5015866;28;20175;-73
2022/08/31 13:18:25;;;;;;;7.50;1.10;;;28.10;37.20;;;;;;5017779;28;20077;-73
2022/08/31 13:21:02;;;;;;;4.25;1.00;;;28.70;38.10;;;;;;5005449;28;20301;-73
2022/08/31 13:23:46;;;;;;;3.15;0.90;;;28.70;36.00;;;;;;5017594;28;20152;-73
2022/08/31 13:26:21;;;;;;;1.50;0.80;;;29.10;35.10;;;;;;4990191;28;20107;-73
2022/08/31 13:29:02;;;;;;;2.00;0.68;;;29.60;36.80;;;;;;5020096;28;20052;-73
2022/08/31 13:31:34;;;;;;;4.40;0.90;;;29.50;35.10;;;;;;5002470;28;20045;-73
2022/08/31 13:34:04;;;;;;;2.28;0.70;;;29.50;35.50;;;;;;5019366;28;20539;-73
2022/08/31 13:36:39;;;;;;;3.42;0.75;;;29.20;38.20;;;;;;5037737;28;20459;-73
2022/08/31 13:39:26;;;;;;;2.72;0.80;;;28.80;37.60;;;;;;5018029;28;20057;-73